METAR Data
IDs: Format: Raw Decoded Include TAF

Data at: 0000 UTC 25 Apr 2019

METAR for:KMUT (Muscatine Muni, IA, US)
Text:KMUT 242355Z AUTO 16006KT 10SM CLR 16/06 A2984 RMK AO2
Temperature: 16.0°C ( 61°F)
Dewpoint: 6.0°C ( 43°F) [RH = 51%]
Pressure (altimeter):29.84 inches Hg (1010.6 mb)
Winds:from the SSE (160 degrees) at 7 MPH (6 knots; 3.1 m/s)
Visibility:10 or more sm (16+ km)
Ceiling:at least 12,000 feet AGL
Clouds:sky clear below 12,000 feet AGL
QC Flag:automated observation with no human augmentation